Time;durP1;ratioP1;P1;durP2;ratioP2;P2;SDS_P1;SDS_P2;PMS_P1;PMS_P2;Temp;Humidity;BMP_temperature;BMP_pressure;BME280_temperature;BME280_humidity;BME280_pressure;Samples;Min_cycle;Max_cycle;Signal;HPM_P1;HPM_P2
2023/04/28 00:00:26;;;;;;;7.35;3.88;;;;;;;-145.41;100.00;58600.66;5006928;28;20049;-74
2023/04/28 00:02:52;;;;;;;7.72;3.85;;;;;;;-145.41;100.00;58600.66;5006609;28;20400;-74
2023/04/28 00:05:18;;;;;;;10.27;4.70;;;;;;;-145.41;100.00;58600.66;5001607;28;20042;-74
2023/04/28 00:07:43;;;;;;;9.27;4.60;;;;;;;-145.41;100.00;58600.66;5010704;28;20060;-74
2023/04/28 00:10:09;;;;;;;8.68;4.30;;;;;;;-145.41;100.00;58600.66;5014028;28;20041;-74
2023/04/28 00:12:34;;;;;;;6.45;3.80;;;;;;;-145.41;100.00;58600.66;5001883;28;20116;-74
2023/04/28 00:14:59;;;;;;;9.35;4.07;;;;;;;-145.41;100.00;58600.66;5006921;28;20607;-75
2023/04/28 00:17:25;;;;;;;7.57;4.05;;;;;;;-145.41;100.00;58600.66;5005159;28;20504;-74
2023/04/28 00:19:51;;;;;;;8.07;4.28;;;;;;;-145.41;100.00;58600.66;5003988;28;20034;-74
2023/04/28 00:22:17;;;;;;;11.00;4.70;;;;;;;-145.41;100.00;58600.66;5002119;28;20120;-74
2023/04/28 00:24:43;;;;;;;8.48;4.32;;;;;;;-145.41;100.00;58600.66;5004370;28;20042;-73
2023/04/28 00:27:08;;;;;;;10.80;4.50;;;;;;;-145.41;100.00;58600.66;5005523;28;20476;-74
2023/04/28 00:29:33;;;;;;;7.38;3.72;;;;;;;-145.41;100.00;58600.66;4985281;28;20084;-74
2023/04/28 00:31:59;;;;;;;6.57;4.32;;;;;;;-145.41;100.00;58600.66;5002359;28;20033;-74
2023/04/28 00:34:24;;;;;;;11.05;3.58;;;;;;;-145.41;100.00;58600.66;4989316;28;20022;-74
2023/04/28 00:36:49;;;;;;;9.52;4.55;;;;;;;-145.41;100.00;58600.66;4993090;28;20133;-74
2023/04/28 00:39:17;;;;;;;8.32;4.13;;;;;;;-145.41;100.00;58600.66;5003367;28;20063;-74
2023/04/28 00:41:42;;;;;;;7.30;4.00;;;;;;;-145.41;100.00;58600.66;5002633;28;20400;-74
2023/04/28 00:44:08;;;;;;;7.35;4.47;;;;;;;-145.41;100.00;58600.66;4985576;28;20059;-74
2023/04/28 00:46:33;;;;;;;7.90;4.38;;;;;;;-145.41;100.00;58600.66;5002491;28;20081;-74
2023/04/28 00:48:59;;;;;;;6.95;4.10;;;;;;;-145.41;100.00;58600.66;5000569;28;20089;-74
2023/04/28 00:51:26;;;;;;;6.88;3.75;;;;;;;-145.41;100.00;58600.66;5002949;28;20044;-74
2023/04/28 00:53:51;;;;;;;8.30;4.60;;;;;;;-145.41;100.00;58600.66;4986134;28;20038;-74
2023/04/28 00:56:17;;;;;;;11.23;4.43;;;;;;;-145.41;100.00;58600.66;5002147;28;20038;-74
2023/04/28 00:58:43;;;;;;;8.18;3.85;;;;;;;-145.41;100.00;58600.66;5002967;28;20812;-74
2023/04/28 01:01:09;;;;;;;8.35;4.15;;;;;;;-145.41;100.00;58600.66;4984315;28;20460;-74
2023/04/28 01:03:37;;;;;;;7.88;4.30;;;;;;;-145.41;100.00;58600.66;5003410;28;20038;-74
2023/04/28 01:06:07;;;;;;;8.85;5.32;;;;;;;-145.41;100.00;58600.66;4983437;28;20058;-74
2023/04/28 01:08:35;;;;;;;7.30;4.30;;;;;;;-145.41;100.00;58600.66;4982958;28;20057;-73
2023/04/28 01:11:03;;;;;;;9.00;5.13;;;;;;;-145.41;100.00;58600.66;4985896;28;20042;-73
2023/04/28 01:13:47;;;;;;;9.98;4.32;;;;;;;-145.41;100.00;58600.66;5004382;28;20053;-74
2023/04/28 01:16:13;;;;;;;10.02;4.63;;;;;;;-145.41;100.00;58600.66;4986235;28;20038;-74
2023/04/28 01:18:45;;;;;;;10.50;4.90;;;;;;;-145.41;100.00;58600.66;4998571;28;20101;-74
2023/04/28 01:21:10;;;;;;;10.18;4.68;;;;;;;-145.41;100.00;58600.66;5007413;28;20103;-74
2023/04/28 01:23:37;;;;;;;8.00;4.60;;;;;;;-145.41;100.00;58600.66;4983459;28;20501;-74
2023/04/28 01:26:02;;;;;;;10.80;4.65;;;;;;;-145.41;100.00;58600.66;4992945;28;20065;-74
2023/04/28 01:28:28;;;;;;;6.32;3.88;;;;;;;-145.41;100.00;58600.66;4983616;28;20519;-74
2023/04/28 01:30:54;;;;;;;9.55;4.63;;;;;;;-145.41;100.00;58600.66;4985598;28;20454;-73
2023/04/28 01:33:20;;;;;;;10.82;4.65;;;;;;;-145.41;100.00;58600.66;4996212;28;20072;-74
2023/04/28 01:35:46;;;;;;;10.07;4.93;;;;;;;-145.41;100.00;58600.66;4992152;28;20493;-74
2023/04/28 01:38:11;;;;;;;8.35;4.47;;;;;;;-145.41;100.00;58600.66;5005795;28;20092;-74
2023/04/28 01:40:37;;;;;;;7.75;4.40;;;;;;;-145.41;100.00;58600.66;4986064;28;20073;-74
2023/04/28 01:43:02;;;;;;;8.65;4.13;;;;;;;-145.41;100.00;58600.66;5003817;28;20493;-74
2023/04/28 01:45:28;;;;;;;8.48;4.43;;;;;;;-145.41;100.00;58600.66;5001906;28;20038;-74
2023/04/28 01:47:54;;;;;;;7.95;4.30;;;;;;;-145.41;100.00;58600.66;5001040;28;20041;-74
2023/04/28 01:50:19;;;;;;;9.23;4.40;;;;;;;-145.41;100.00;58600.66;4999572;28;20036;-74
2023/04/28 01:52:44;;;;;;;9.07;4.93;;;;;;;-145.41;100.00;58600.66;4984361;28;20057;-74
2023/04/28 01:55:10;;;;;;;7.57;4.30;;;;;;;-145.41;100.00;58600.66;4992865;28;20113;-74
2023/04/28 01:57:36;;;;;;;11.57;4.70;;;;;;;-145.41;100.00;58600.66;4985003;28;20025;-74
2023/04/28 02:00:03;;;;;;;11.27;5.18;;;;;;;-145.41;100.00;58600.66;4984692;28;20041;-74
2023/04/28 02:02:32;;;;;;;8.85;4.50;;;;;;;-145.41;100.00;58600.66;5000561;28;20066;-74
2023/04/28 02:04:58;;;;;;;8.82;4.70;;;;;;;-145.41;100.00;58600.66;4985585;28;20560;-74
2023/04/28 02:07:23;;;;;;;8.75;4.80;;;;;;;-145.41;100.00;58600.66;5000228;28;20432;-74
2023/04/28 02:09:48;;;;;;;11.23;5.43;;;;;;;-145.41;100.00;58600.66;5002807;28;20583;-74
2023/04/28 02:12:15;;;;;;;12.82;6.05;;;;;;;-145.41;100.00;58600.66;4993783;28;20022;-74
2023/04/28 02:14:40;;;;;;;9.48;4.88;;;;;;;-145.41;100.00;58600.66;4985264;28;20056;-74
2023/04/28 02:17:05;;;;;;;9.63;5.30;;;;;;;-145.41;100.00;58600.66;4993514;28;20069;-74
2023/04/28 02:19:32;;;;;;;10.80;5.65;;;;;;;-145.41;100.00;58600.66;4982953;28;20038;-74
2023/04/28 02:21:57;;;;;;;8.13;4.95;;;;;;;-145.41;100.00;58600.66;4985692;28;20025;-74
2023/04/28 02:24:22;;;;;;;11.05;6.03;;;;;;;-145.41;100.00;58600.66;4999905;28;20038;-74
2023/04/28 02:26:49;;;;;;;12.20;5.28;;;;;;;-145.41;100.00;58600.66;5006816;28;20378;-74
2023/04/28 02:29:14;;;;;;;9.30;5.50;;;;;;;-145.41;100.00;58600.66;5002546;28;20048;-74
2023/04/28 02:31:39;;;;;;;10.65;5.22;;;;;;;-145.41;100.00;58600.66;4999999;28;20038;-74
2023/04/28 02:34:05;;;;;;;10.07;5.63;;;;;;;-145.41;100.00;58600.66;5006055;28;20026;-74
2023/04/28 02:36:32;;;;;;;8.40;5.38;;;;;;;-145.41;100.00;58600.66;4982479;28;20069;-74
2023/04/28 02:38:58;;;;;;;8.23;5.32;;;;;;;-145.41;100.00;58600.66;4984429;28;20049;-74
2023/04/28 02:41:25;;;;;;;9.52;5.72;;;;;;;-145.41;100.00;58600.66;4983639;28;20462;-74
2023/04/28 02:43:51;;;;;;;9.98;5.63;;;;;;;-145.41;100.00;58600.66;4984203;28;20121;-74
2023/04/28 02:46:16;;;;;;;7.20;4.93;;;;;;;-145.41;100.00;58600.66;5000696;28;20066;-74
2023/04/28 02:48:41;;;;;;;10.77;5.25;;;;;;;-145.41;100.00;58600.66;4998914;28;20045;-74
2023/04/28 02:51:09;;;;;;;11.93;5.72;;;;;;;-145.41;100.00;58600.66;4985521;28;20403;-74
2023/04/28 02:53:34;;;;;;;8.25;5.05;;;;;;;-145.41;100.00;58600.66;4986589;28;20059;-74
2023/04/28 02:56:01;;;;;;;8.65;5.38;;;;;;;-145.41;100.00;58600.66;4987627;28;20038;-74
2023/04/28 02:58:27;;;;;;;11.20;5.47;;;;;;;-145.41;100.00;58600.66;4986633;28;20084;-73
2023/04/28 03:00:52;;;;;;;12.82;5.70;;;;;;;-145.41;100.00;58600.66;4987658;28;20042;-74
2023/04/28 03:03:17;;;;;;;12.32;5.15;;;;;;;-145.41;100.00;58600.66;5004079;28;20054;-74
2023/04/28 03:05:43;;;;;;;8.30;5.18;;;;;;;-145.41;100.00;58600.66;4988823;28;20034;-74
2023/04/28 03:08:08;;;;;;;10.88;4.68;;;;;;;-145.41;100.00;58600.66;4987840;28;20499;-74
2023/04/28 03:10:34;;;;;;;8.68;5.03;;;;;;;-145.41;100.00;58600.66;4996163;28;20037;-74
2023/04/28 03:13:00;;;;;;;9.07;5.05;;;;;;;-145.41;100.00;58600.66;4985526;28;20053;-74
2023/04/28 03:15:25;;;;;;;9.73;5.38;;;;;;;-145.41;100.00;58600.66;4988329;28;20080;-76
2023/04/28 03:17:51;;;;;;;12.23;5.25;;;;;;;-145.41;100.00;58600.66;5007682;28;20030;-74
2023/04/28 03:20:16;;;;;;;12.73;5.45;;;;;;;-145.41;100.00;58600.66;4989502;28;20034;-74
2023/04/28 03:22:42;;;;;;;8.50;4.85;;;;;;;-145.41;100.00;58600.66;4988230;28;20050;-74
2023/04/28 03:25:07;;;;;;;9.43;5.03;;;;;;;-145.41;100.00;58600.66;4998438;28;20701;-74
2023/04/28 03:27:38;;;;;;;8.07;4.55;;;;;;;-145.41;100.00;58600.66;4996322;28;20042;-74
2023/04/28 03:30:05;;;;;;;9.25;5.30;;;;;;;-145.41;100.00;58600.66;4993416;28;20069;-73
2023/04/28 03:32:31;;;;;;;9.27;4.65;;;;;;;-145.41;100.00;58600.66;4986745;28;20030;-74
2023/04/28 03:34:56;;;;;;;10.60;4.35;;;;;;;-145.41;100.00;58600.66;4991633;28;20520;-74
2023/04/28 03:37:22;;;;;;;10.20;4.63;;;;;;;-145.41;100.00;58600.66;4987370;28;20037;-74
2023/04/28 03:39:47;;;;;;;5.95;4.00;;;;;;;-145.41;100.00;58600.66;4985986;28;20057;-74
2023/04/28 03:42:13;;;;;;;10.95;5.13;;;;;;;-145.41;100.00;58600.66;4987519;28;20029;-74
2023/04/28 03:45:04;;;;;;;8.13;4.35;;;;;;;-145.41;100.00;58600.66;4991174;28;20117;-74
2023/04/28 03:47:30;;;;;;;7.32;4.75;;;;;;;-145.41;100.00;58600.66;4985407;28;20142;-74
2023/04/28 03:49:57;;;;;;;9.20;4.60;;;;;;;-145.41;100.00;58600.66;4994777;28;20048;-74
2023/04/28 03:52:23;;;;;;;12.10;5.40;;;;;;;-145.41;100.00;58600.66;5000008;28;20435;-74
2023/04/28 03:54:49;;;;;;;7.40;4.55;;;;;;;-145.41;100.00;58600.66;4985943;28;20088;-74
2023/04/28 03:57:14;;;;;;;8.10;5.18;;;;;;;-145.41;100.00;58600.66;4986305;28;20096;-74
2023/04/28 03:59:39;;;;;;;10.23;4.80;;;;;;;-145.41;100.00;58600.66;5007929;23;20034;-77
2023/04/28 04:02:05;;;;;;;7.68;4.60;;;;;;;-145.41;100.00;58600.66;4988834;28;20415;-76
2023/04/28 04:04:30;;;;;;;9.30;4.82;;;;;;;-145.41;100.00;58600.66;4988366;28;20030;-77
2023/04/28 04:06:56;;;;;;;10.85;4.95;;;;;;;-145.41;100.00;58600.66;4986156;28;20034;-76
2023/04/28 04:09:22;;;;;;;9.98;5.13;;;;;;;-145.41;100.00;58600.66;4982445;28;20027;-77
2023/04/28 04:11:47;;;;;;;11.30;5.45;;;;;;;-145.41;100.00;58600.66;4975204;28;20408;-77
2023/04/28 04:14:12;;;;;;;8.02;5.53;;;;;;;-145.41;100.00;58600.66;4974919;28;20096;-76
2023/04/28 04:16:38;;;;;;;8.07;4.80;;;;;;;-145.41;100.00;58600.66;4975970;28;20121;-75
2023/04/28 04:19:04;;;;;;;12.73;5.38;;;;;;;-145.41;100.00;58600.66;4990430;28;20036;-77
2023/04/28 04:21:37;;;;;;;8.32;4.95;;;;;;;-145.41;100.00;58600.66;4992718;28;20038;-77
2023/04/28 04:24:02;;;;;;;12.90;6.72;;;;;;;-145.41;100.00;58600.66;4975685;28;20038;-76
2023/04/28 04:26:28;;;;;;;11.88;6.43;;;;;;;-145.41;100.00;58600.66;4975280;28;20121;-77
2023/04/28 04:28:53;;;;;;;9.98;6.72;;;;;;;-145.41;100.00;58600.66;4973608;28;20034;-77
2023/04/28 04:31:19;;;;;;;8.80;4.95;;;;;;;-145.41;100.00;58600.66;4975339;28;20053;-76
2023/04/28 04:33:45;;;;;;;9.45;5.95;;;;;;;-145.41;100.00;58600.66;4975080;28;20041;-77
2023/04/28 04:36:10;;;;;;;10.85;5.40;;;;;;;-145.41;100.00;58600.66;4975220;28;20444;-76
2023/04/28 04:38:36;;;;;;;10.20;5.47;;;;;;;-145.41;100.00;58600.66;4975349;28;20041;-76
2023/04/28 04:41:11;;;;;;;11.35;5.55;;;;;;;-145.41;100.00;58600.66;4972801;28;20022;-76
2023/04/28 04:43:36;;;;;;;8.82;5.50;;;;;;;-145.41;100.00;58600.66;4991190;28;20041;-76
2023/04/28 04:46:02;;;;;;;9.52;5.40;;;;;;;-145.41;100.00;58600.66;4981210;28;20081;-76
2023/04/28 04:48:28;;;;;;;10.63;5.68;;;;;;;-145.41;100.00;58600.66;4973318;28;20113;-76
2023/04/28 04:50:54;;;;;;;11.18;6.18;;;;;;;-145.41;100.00;58600.66;4974710;28;20054;-76
2023/04/28 04:53:19;;;;;;;8.65;5.18;;;;;;;-145.41;100.00;58600.66;4975139;28;20100;-76
2023/04/28 04:55:45;;;;;;;10.73;6.22;;;;;;;-145.41;100.00;58600.66;4992148;28;20049;-77
2023/04/28 04:58:10;;;;;;;12.85;5.82;;;;;;;-145.41;100.00;58600.66;4974857;28;20038;-76
2023/04/28 05:00:59;;;;;;;14.82;6.40;;;;;;;-145.41;100.00;58600.66;4973021;28;20026;-76
2023/04/28 05:03:25;;;;;;;15.15;9.32;;;;;;;-145.41;100.00;58600.66;4975024;28;20417;-76
2023/04/28 05:05:50;;;;;;;18.10;11.30;;;;;;;-145.41;100.00;58600.66;4975127;28;20053;-77
2023/04/28 05:08:29;;;;;;;10.98;6.80;;;;;;;-145.41;100.00;58600.66;4991210;28;20128;-77
2023/04/28 05:10:56;;;;;;;11.35;6.97;;;;;;;-145.41;100.00;58600.66;4970962;28;20026;-76
2023/04/28 05:13:22;;;;;;;13.68;6.35;;;;;;;-145.41;100.00;58600.66;4974464;28;20084;-76
2023/04/28 05:15:54;;;;;;;9.32;5.75;;;;;;;-145.41;100.00;58600.66;4974477;28;20516;-76
2023/04/28 05:18:32;;;;;;;9.20;6.13;;;;;;;-145.41;100.00;58600.66;4974790;28;20509;-76
2023/04/28 05:20:58;;;;;;;11.80;6.30;;;;;;;-145.41;100.00;58600.66;4974754;28;20065;-76
2023/04/28 05:23:23;;;;;;;12.73;6.78;;;;;;;-145.41;100.00;58600.66;4992478;28;20520;-76
2023/04/28 05:25:50;;;;;;;10.18;5.95;;;;;;;-145.41;100.00;58600.66;4974845;28;20034;-76
2023/04/28 05:28:15;;;;;;;8.73;6.13;;;;;;;-145.41;100.00;58600.66;4974627;28;20042;-76
2023/04/28 05:30:43;;;;;;;10.57;5.50;;;;;;;-145.41;100.00;58600.66;4970765;28;20061;-76
2023/04/28 05:33:09;;;;;;;13.15;5.97;;;;;;;-145.41;100.00;58600.66;4974916;28;20508;-77
2023/04/28 05:35:35;;;;;;;12.40;6.60;;;;;;;-145.41;100.00;58600.66;4974836;28;20026;-77
2023/04/28 05:38:01;;;;;;;9.40;5.78;;;;;;;-145.41;100.00;58600.66;4974684;28;20049;-77
2023/04/28 05:40:27;;;;;;;10.55;6.78;;;;;;;-145.41;100.00;58600.66;4972198;28;20062;-76
2023/04/28 05:42:54;;;;;;;13.60;6.80;;;;;;;-145.41;100.00;58600.66;4974440;28;20041;-76
2023/04/28 05:45:19;;;;;;;11.15;5.95;;;;;;;-145.41;100.00;58600.66;4980189;28;20117;-76
2023/04/28 05:47:45;;;;;;;10.50;6.78;;;;;;;-145.41;100.00;58600.66;4991742;28;20489;-76
2023/04/28 05:50:10;;;;;;;11.98;7.15;;;;;;;-145.41;100.00;58600.66;4967754;28;20500;-76
2023/04/28 05:52:36;;;;;;;8.98;6.72;;;;;;;-145.41;100.00;58600.66;4974191;28;20627;-76
2023/04/28 05:55:02;;;;;;;13.05;6.53;;;;;;;-145.41;100.00;58600.66;4973745;28;20105;-76
2023/04/28 05:57:28;;;;;;;12.43;6.43;;;;;;;-145.41;100.00;58600.66;4991843;28;20034;-76
2023/04/28 05:59:53;;;;;;;12.93;6.28;;;;;;;-145.41;100.00;58600.66;4971412;28;20034;-76
2023/04/28 06:02:18;;;;;;;11.02;6.65;;;;;;;-145.41;100.00;58600.66;4974426;28;20026;-76
2023/04/28 06:04:44;;;;;;;9.38;6.25;;;;;;;-145.41;100.00;58600.66;4991786;28;20519;-76
2023/04/28 06:07:09;;;;;;;13.80;7.53;;;;;;;-145.41;100.00;58600.66;4973446;28;20049;-77
2023/04/28 06:09:36;;;;;;;12.65;6.47;;;;;;;-145.41;100.00;58600.66;4972938;28;20058;-76
2023/04/28 06:12:02;;;;;;;8.80;6.13;;;;;;;-145.41;100.00;58600.66;4991534;28;20074;-76
2023/04/28 06:14:28;;;;;;;10.70;6.00;;;;;;;-145.41;100.00;58600.66;4974513;28;20038;-76
2023/04/28 06:16:53;;;;;;;12.80;6.47;;;;;;;-145.41;100.00;58600.66;4991686;28;20081;-76
2023/04/28 06:19:19;;;;;;;10.93;6.22;;;;;;;-145.41;100.00;58600.66;4973787;28;20516;-76
2023/04/28 06:21:45;;;;;;;18.73;11.95;;;;;;;-145.41;100.00;58600.66;4991678;28;20038;-77
2023/04/28 06:24:10;;;;;;;21.50;13.55;;;;;;;-145.41;100.00;58600.66;4974177;28;20030;-76
2023/04/28 06:26:37;;;;;;;16.98;12.75;;;;;;;-145.41;100.00;58600.66;4974361;28;20034;-77
2023/04/28 06:29:03;;;;;;;21.45;13.65;;;;;;;-145.41;100.00;58600.66;4995058;28;20100;-76
2023/04/28 06:31:29;;;;;;;17.50;12.88;;;;;;;-145.41;100.00;58600.66;4994134;28;20030;-77
2023/04/28 06:33:54;;;;;;;21.85;14.48;;;;;;;-145.41;100.00;58600.66;4995261;28;20049;-77
2023/04/28 06:36:21;;;;;;;14.27;9.15;;;;;;;-145.41;100.00;58600.66;4977875;28;20404;-76
2023/04/28 06:38:46;;;;;;;14.35;8.35;;;;;;;-145.41;100.00;58600.66;4992633;28;20053;-76
2023/04/28 06:41:12;;;;;;;21.92;14.00;;;;;;;-145.41;100.00;58600.66;4993594;28;20070;-77
2023/04/28 06:43:39;;;;;;;22.52;15.15;;;;;;;-145.41;100.00;58600.66;4977452;28;20038;-76
2023/04/28 06:46:12;;;;;;;15.60;9.80;;;;;;;-145.41;100.00;58600.66;4977851;28;20034;-77
2023/04/28 06:48:37;;;;;;;23.27;13.98;;;;;;;-145.41;100.00;58600.66;4995168;28;20617;-76
2023/04/28 06:51:03;;;;;;;19.50;13.57;;;;;;;-145.41;100.00;58600.66;4994891;28;20051;-76
2023/04/28 06:53:29;;;;;;;18.02;13.02;;;;;;;-145.41;100.00;58600.66;4995029;28;20026;-77
2023/04/28 06:55:55;;;;;;;15.23;11.15;;;;;;;-145.41;100.00;58600.66;4977336;28;20053;-77
2023/04/28 06:58:21;;;;;;;17.55;10.10;;;;;;;-145.41;100.00;58600.66;4977477;28;20030;-77
2023/04/28 07:00:46;;;;;;;14.05;7.05;;;;;;;-145.41;100.00;58600.66;4994641;28;20030;-77
2023/04/28 07:03:12;;;;;;;10.20;6.60;;;;;;;-145.41;100.00;58600.66;4994531;28;20046;-76
2023/04/28 07:05:37;;;;;;;7.82;5.13;;;;;;;-145.41;100.00;58600.66;4995004;28;20038;-76
2023/04/28 07:08:03;;;;;;;9.07;5.30;;;;;;;-145.41;100.00;58600.66;4994602;28;20045;-77
2023/04/28 07:10:28;;;;;;;10.27;6.15;;;;;;;-145.41;100.00;58600.66;4994631;28;20042;-76
2023/04/28 07:12:53;;;;;;;11.23;6.28;;;;;;;-145.41;100.00;58600.66;4994955;28;20042;-76
2023/04/28 07:15:19;;;;;;;12.88;7.10;;;;;;;-145.41;100.00;58600.66;4993669;28;20057;-77
2023/04/28 07:17:44;;;;;;;12.75;6.40;;;;;;;-145.41;100.00;58600.66;4994594;28;20156;-77
2023/04/28 07:20:10;;;;;;;9.57;5.53;;;;;;;-145.41;100.00;58600.66;4994562;28;20074;-77
2023/04/28 07:22:35;;;;;;;10.18;6.32;;;;;;;-145.41;100.00;58600.66;4995243;28;20030;-77
2023/04/28 07:25:00;;;;;;;8.60;6.13;;;;;;;-145.41;100.00;58600.66;4994057;28;20045;-76
2023/04/28 07:27:26;;;;;;;8.98;6.05;;;;;;;-145.41;100.00;58600.66;4994362;28;20034;-77
2023/04/28 07:29:51;;;;;;;10.25;7.25;;;;;;;-145.41;100.00;58600.66;4994073;28;20034;-77
2023/04/28 07:32:16;;;;;;;10.88;7.18;;;;;;;-145.41;100.00;58600.66;4995195;28;20107;-76
2023/04/28 07:34:42;;;;;;;13.27;7.70;;;;;;;-145.41;100.00;58600.66;4995061;28;20030;-77
2023/04/28 07:37:07;;;;;;;13.32;6.40;;;;;;;-145.41;100.00;58600.66;4994507;28;20073;-77
2023/04/28 07:39:33;;;;;;;12.52;7.15;;;;;;;-145.41;100.00;58600.66;4993894;28;20049;-77
2023/04/28 07:42:01;;;;;;;10.95;6.82;;;;;;;-145.41;100.00;58600.66;4994830;28;20445;-77
2023/04/28 07:44:26;;;;;;;11.77;7.32;;;;;;;-145.41;100.00;58600.66;4991751;28;20412;-77
2023/04/28 07:46:52;;;;;;;10.10;7.05;;;;;;;-145.41;100.00;58600.66;4995002;28;20038;-77
2023/04/28 07:49:18;;;;;;;9.98;6.30;;;;;;;-145.41;100.00;58600.66;4994968;28;20049;-77
2023/04/28 07:51:43;;;;;;;8.70;6.03;;;;;;;-145.41;100.00;58600.66;4994909;28;20489;-77
2023/04/28 07:54:08;;;;;;;12.13;6.20;;;;;;;-145.41;100.00;58600.66;4993986;28;20031;-77
2023/04/28 07:56:34;;;;;;;11.07;5.85;;;;;;;-145.41;100.00;58600.66;4994809;28;20042;-77
2023/04/28 07:58:59;;;;;;;9.02;5.65;;;;;;;-145.41;100.00;58600.66;4994490;28;20062;-77
2023/04/28 08:01:25;;;;;;;9.32;5.07;;;;;;;-145.41;100.00;58600.66;4995149;28;20477;-77
2023/04/28 08:03:50;;;;;;;7.25;5.22;;;;;;;-145.41;100.00;58600.66;4995245;28;20065;-77
2023/04/28 08:06:15;;;;;;;9.15;5.60;;;;;;;-145.41;100.00;58600.66;4993407;28;20030;-77
2023/04/28 08:08:41;;;;;;;8.88;4.93;;;;;;;-145.41;100.00;58600.66;4993725;28;20489;-77
2023/04/28 08:11:07;;;;;;;9.07;5.63;;;;;;;-145.41;100.00;58600.66;4975755;28;20034;-77
2023/04/28 08:13:32;;;;;;;10.32;5.93;;;;;;;-145.41;100.00;58600.66;4990179;28;20022;-77
2023/04/28 08:16:01;;;;;;;12.68;7.50;;;;;;;-145.41;100.00;58600.66;4995889;28;20453;-77
2023/04/28 08:18:27;;;;;;;11.23;6.63;;;;;;;-145.41;100.00;58600.66;4995337;28;20080;-77
2023/04/28 08:20:53;;;;;;;11.43;6.68;;;;;;;-145.41;100.00;58600.66;4995066;28;20128;-76
2023/04/28 08:23:19;;;;;;;13.77;8.30;;;;;;;-145.41;100.00;58600.66;4994892;28;20894;-77
2023/04/28 08:25:45;;;;;;;10.05;6.50;;;;;;;-145.41;100.00;58600.66;4994515;28;20038;-77
2023/04/28 08:28:11;;;;;;;10.02;6.85;;;;;;;-145.41;100.00;58600.66;4995070;28;20130;-76
2023/04/28 08:30:37;;;;;;;12.95;6.88;;;;;;;-145.41;100.00;58600.66;4994112;28;20088;-77
2023/04/28 08:33:03;;;;;;;15.45;10.00;;;;;;;-145.41;100.00;58600.66;4994399;28;20570;-77
2023/04/28 08:35:29;;;;;;;13.82;9.32;;;;;;;-145.41;100.00;58600.66;4995017;28;20121;-77
2023/04/28 08:37:54;;;;;;;11.23;5.88;;;;;;;-145.41;100.00;58600.66;4994948;28;20113;-77
2023/04/28 08:40:19;;;;;;;10.02;5.88;;;;;;;-145.41;100.00;58600.66;4993547;28;20084;-77
2023/04/28 08:42:46;;;;;;;12.35;8.75;;;;;;;-145.41;100.00;58600.66;4991930;28;20045;-77
2023/04/28 08:45:15;;;;;;;10.30;7.75;;;;;;;-145.41;100.00;58600.66;4993980;28;20189;-77
2023/04/28 08:47:44;;;;;;;14.63;10.00;;;;;;;-145.41;100.00;58600.66;4994111;28;20404;-77
2023/04/28 08:50:14;;;;;;;11.98;8.80;;;;;;;-145.41;100.00;58600.66;4989056;28;20030;-76
2023/04/28 08:52:41;;;;;;;13.23;9.55;;;;;;;-145.41;100.00;58600.66;4995299;28;20035;-77
2023/04/28 08:55:08;;;;;;;13.45;9.38;;;;;;;-145.41;100.00;58600.66;4995302;28;20042;-77
2023/04/28 08:57:42;;;;;;;12.40;8.18;;;;;;;-145.41;100.00;58600.66;4996481;28;20030;-77
2023/04/28 09:00:09;;;;;;;9.75;7.32;;;;;;;-145.41;100.00;58600.66;4994832;28;20046;-77
2023/04/28 09:02:36;;;;;;;11.45;8.05;;;;;;;-145.41;100.00;58600.66;4995736;28;20038;-77
2023/04/28 09:05:03;;;;;;;11.68;7.20;;;;;;;-145.41;100.00;58600.66;4993305;28;20058;-77
2023/04/28 09:07:28;;;;;;;13.32;5.28;;;;;;;-145.41;100.00;58600.66;4995419;28;20540;-77
2023/04/28 09:10:15;;;;;;;7.00;4.45;;;;;;;-145.41;100.00;58600.66;4994028;28;20038;-76
2023/04/28 09:12:40;;;;;;;11.15;5.57;;;;;;;-145.41;100.00;58600.66;4995071;28;20034;-77
2023/04/28 09:15:08;;;;;;;14.13;8.85;;;;;;;-145.41;100.00;58600.66;4994388;28;20041;-77
2023/04/28 09:17:47;;;;;;;8.40;4.47;;;;;;;-145.41;100.00;58600.66;4995648;28;20069;-77
2023/04/28 09:20:23;;;;;;;9.32;4.72;;;;;;;-145.41;100.00;58600.66;4992753;28;20489;-77
2023/04/28 09:22:49;;;;;;;11.32;9.02;;;;;;;-145.41;100.00;58600.66;4995590;28;20030;-77
2023/04/28 09:25:15;;;;;;;11.60;7.07;;;;;;;-145.41;100.00;58600.66;4995281;28;20476;-77
2023/04/28 09:27:40;;;;;;;10.18;5.20;;;;;;;-145.41;100.00;58600.66;4994092;28;20049;-76
2023/04/28 09:30:07;;;;;;;11.40;6.72;;;;;;;-145.41;100.00;58600.66;4996408;28;20040;-77
2023/04/28 09:32:32;;;;;;;8.32;5.53;;;;;;;-145.41;100.00;58600.66;4998089;28;20065;-77
2023/04/28 09:34:58;;;;;;;10.50;6.43;;;;;;;-145.41;100.00;58600.66;4998675;28;20493;-77
2023/04/28 09:37:31;;;;;;;11.68;7.22;;;;;;;-145.41;100.00;58600.66;4996863;28;20045;-77
2023/04/28 09:40:06;;;;;;;10.27;6.07;;;;;;;-145.41;100.00;58600.66;4993630;28;20038;-77
2023/04/28 09:42:32;;;;;;;8.25;4.30;;;;;;;-145.41;100.00;58600.66;4997113;28;20041;-77
2023/04/28 09:44:58;;;;;;;9.70;4.13;;;;;;;-145.41;100.00;58600.66;4996501;28;20075;-77
2023/04/28 09:47:24;;;;;;;7.60;3.63;;;;;;;-145.41;100.00;58600.66;4996285;28;20444;-77
2023/04/28 09:49:57;;;;;;;8.45;4.00;;;;;;;-145.41;100.00;58600.66;4995458;28;20046;-77
2023/04/28 09:52:26;;;;;;;5.88;3.10;;;;;;;-145.41;100.00;58600.66;4995862;28;20061;-77
2023/04/28 09:54:53;;;;;;;8.15;4.13;;;;;;;-145.41;100.00;58600.66;4991583;28;20038;-77
2023/04/28 09:57:20;;;;;;;5.60;3.58;;;;;;;-145.41;100.00;58600.66;4995801;28;20034;-77
2023/04/28 09:59:50;;;;;;;9.60;4.40;;;;;;;-145.41;100.00;58600.66;4996267;28;20114;-77
2023/04/28 10:02:17;;;;;;;7.53;4.43;;;;;;;-145.41;100.00;58600.66;4995150;28;20034;-76
2023/04/28 10:04:44;;;;;;;10.88;4.75;;;;;;;-145.41;100.00;58600.66;5026317;23;20522;-72
2023/04/28 10:07:15;;;;;;;7.18;3.67;;;;;;;-145.41;100.00;58600.66;5003507;28;20701;-72
2023/04/28 10:09:43;;;;;;;7.72;3.45;;;;;;;-145.41;100.00;58600.66;5019151;28;20497;-72
2023/04/28 10:12:10;;;;;;;6.15;3.60;;;;;;;-145.41;100.00;58600.66;5010965;28;20064;-72
2023/04/28 10:14:36;;;;;;;7.50;3.38;;;;;;;-145.41;100.00;58600.66;4987606;28;20030;-72
2023/04/28 10:17:04;;;;;;;8.60;3.78;;;;;;;-145.41;100.00;58600.66;4989591;28;20049;-72
2023/04/28 10:19:29;;;;;;;7.38;4.13;;;;;;;-145.41;100.00;58600.66;4987463;28;20672;-72
2023/04/28 10:22:47;;;;;;;9.38;4.15;;;;;;;-145.41;100.00;58600.66;4991309;28;20114;-72
2023/04/28 10:25:25;;;;;;;10.02;5.43;;;;;;;-145.41;100.00;58600.66;4991364;28;20030;-72
2023/04/28 10:27:51;;;;;;;8.68;5.18;;;;;;;-145.41;100.00;58600.66;4986881;28;20038;-72
2023/04/28 10:30:20;;;;;;;8.85;4.70;;;;;;;-145.41;100.00;58600.66;4990795;28;20030;-72
2023/04/28 10:32:46;;;;;;;8.20;4.45;;;;;;;-145.41;100.00;58600.66;4988214;28;20095;-72
2023/04/28 10:35:20;;;;;;;9.10;3.90;;;;;;;-145.41;100.00;58600.66;4981724;28;20042;-72
2023/04/28 10:38:12;;;;;;;10.30;4.15;;;;;;;-145.41;100.00;58600.66;4979884;28;20043;-72
2023/04/28 10:40:41;;;;;;;8.10;4.50;;;;;;;-145.41;100.00;58600.66;4983568;28;20042;-72
2023/04/28 10:43:11;;;;;;;6.18;4.15;;;;;;;-145.41;100.00;58600.66;4980052;28;20035;-72
2023/04/28 10:45:52;;;;;;;9.18;4.15;;;;;;;-145.41;100.00;58600.66;4982736;28;20073;-72
2023/04/28 10:48:32;;;;;;;6.22;3.45;;;;;;;-145.41;100.00;58600.66;4983016;28;20105;-73
2023/04/28 10:51:08;;;;;;;6.13;3.85;;;;;;;-145.41;100.00;58600.66;4984722;28;20113;-72
2023/04/28 10:53:43;;;;;;;8.00;3.97;;;;;;;-145.41;100.00;58600.66;4980720;28;20132;-72
2023/04/28 10:56:18;;;;;;;8.45;4.00;;;;;;;-145.41;100.00;58600.66;4980055;28;20473;-72
2023/04/28 10:58:45;;;;;;;8.13;4.25;;;;;;;-145.41;100.00;58600.66;4986752;28;20576;-72
2023/04/28 11:01:25;;;;;;;6.60;3.67;;;;;;;-145.41;100.00;58600.66;4989277;28;20121;-72
2023/04/28 11:04:02;;;;;;;10.55;7.38;;;;;;;-145.41;100.00;58600.66;4979579;28;20405;-73